Latest Coastal Weather Observations for Low Isles

IDQ60701

Issued at 4:15 am EST Saturday 29 November 2014 (issued every 10 minutes, with the page automatically refreshed every 10 minutes)

About coastal observations | Map of coastal stations | Coastal observations for QLD | Marine services | Other Formats
Station Details ID: 031037 Name: LOW ISLES LIGHTHOUSE Lat: -16.38 Lon: 145.56 Height: 2.9 m
Data from the previous 72 hours. | See also: Recent months at Low Isles
Date/Time
EST
Temp

°C
Wind Pressure Rain
since 9am
mm
Weather Cloud Vis
km
Sea
Height
m
Swell
Dir
 
Speed
knots
Gust
knots
hPa Trend Height
m
Period
s
Dir
29/04:00am 25.8 SSE 15 17 1009.7 - 3.8 - - - - - - -
29/03:30am 25.6 S 16 18 1009.7 - 3.8 - - - - - - -
29/03:00am 25.7 SE 13 19 1009.6 - 3.8 - - - - - - -
29/02:30am 25.0 SE 13 17 1009.6 - 3.8 - - - - - - -
29/02:00am 24.0 SE 7 9 1009.8 - 3.8 - - - - - - -
29/01:30am 23.8 SE 13 24 1010.3 - 3.6 - - - - - - -
29/01:21am 24.8 ESE 27 31 1010.2 - 1.2 - - - - - - -
29/01:00am 26.1 SSE 12 15 1010.6 - 0.2 - - - - - - -
29/12:30am 26.2 SE 12 17 1010.9 - 0.2 - - - - - - -
29/12:00am 26.1 SE 11 15 1011.2 - 0.2 - - - - - - -
 
Date/Time
EST
Temp

°C
Wind Pressure Rain
since 9am
mm
Weather Cloud Vis
km
Sea
Height
m
Swell
Dir
 
Speed
knots
Gust
knots
hPa Trend Height
m
Period
s
Dir
28/11:30pm 26.2 SE 14 17 1011.7 - 0.2 - - - - - - -
28/11:00pm 26.2 SE 14 17 1011.9 - 0.2 - - - - - - -
28/10:30pm 26.3 SE 16 19 1012.1 - 0.2 - - - - - - -
28/10:00pm 26.5 ESE 16 19 1012.2 - 0.2 - - - - - - -
28/09:30pm 26.5 ESE 15 19 1012.1 - 0.2 - - - - - - -
28/09:00pm 26.7 ESE 14 18 1011.7 - 0.2 - - - - - - -
28/08:30pm 26.8 ESE 14 17 1011.7 - 0.2 - - - - - - -
28/08:00pm 27.0 ESE 15 18 1011.5 - 0.2 - - - - - - -
28/07:30pm 27.1 ESE 15 18 1011.3 - 0.2 - - - - - - -
28/07:00pm 27.1 ESE 13 17 1011.1 - 0.2 - - - - - - -
28/06:30pm 27.1 ESE 14 17 1010.8 - 0.2 - - - - - - -
28/06:00pm 27.4 ESE 14 17 1010.6 - 0.2 - - - - - - -
28/05:30pm 27.8 ESE 15 18 1010.4 - 0.2 - - - - - - -
28/05:00pm 28.2 ESE 13 18 1010.3 - 0.2 - - - - - - -
28/04:30pm 28.9 ESE 13 19 1010.1 - 0.2 - - - - - - -
28/04:00pm 29.3 ESE 14 18 1009.9 - 0.2 - - - - - - -
28/03:30pm 29.7 ESE 16 19 1009.8 - 0.2 - - - - - - -
28/03:00pm 30.0 E 17 20 1010.0 - 0.2 Haze Partly cloudy 10 - - - -
28/02:30pm 30.6 E 12 15 1010.3 - 0.2 - - - - - - -
28/02:00pm 30.9 E 15 21 1010.5 - 0.2 - - - - - - -
28/01:30pm 31.3 SE 13 16 1010.7 - 0.2 - - - - - - -
28/01:00pm 31.2 SE 13 15 1011.1 - 0.2 - - - - - - -
28/12:30pm 31.3 SE 12 14 1011.6 - 0.2 - - - - - - -
28/12:00pm 30.4 SE 13 15 1011.6 - 0.2 - - - - - - -
28/11:30am 30.9 SE 12 15 1011.8 - 0.2 - - - - - - -
28/11:00am 30.3 SE 13 16 1012.2 - 0.2 - - - - - - -
28/10:30am 30.4 SE 13 16 1012.3 - 0.2 - - - - - - -
28/10:00am 29.7 SE 14 18 1012.4 - 0.2 - - - - - - -
28/09:30am 29.7 ESE 13 15 1012.4 - 0.2 - - - - - - -
28/09:00am 27.6 SE 10 13 1012.3 - 0.0 - - - - - - -
28/08:30am 26.5 SE 10 12 1012.2 - 0.0 - - - - - - -
28/08:00am 26.1 SSE 12 15 1012.0 - 0.0 - - - - - - -
28/07:30am 27.3 SE 11 13 1011.8 - 0.0 - - - - - - -
28/07:00am 27.1 SE 11 13 1011.5 - 0.0 - - - - - - -
28/06:30am 26.4 ESE 10 13 1011.4 - 0.0 - - - - - - -
28/06:00am 25.9 ESE 12 14 1011.0 - 0.0 - - - - - - -
28/05:30am 25.8 ESE 11 15 1010.7 - 0.0 - - - - - - -
28/05:00am 25.9 ESE 13 17 1010.5 - 0.0 - - - - - - -
28/04:30am 25.9 ESE 12 15 1010.5 - 0.0 - - - - - - -
28/04:00am 26.0 ESE 12 16 1010.5 - 0.0 - - - - - - -
28/03:30am 26.1 ESE 12 15 1010.4 - 0.0 - - - - - - -
28/03:00am 26.3 ESE 12 15 1010.2 - 0.0 - - - - - - -
28/02:30am 26.2 ESE 13 16 1010.3 - 0.0 - - - - - - -
28/02:00am 26.4 ESE 13 16 1010.4 - 0.0 - - - - - - -
28/01:30am 26.2 SE 12 14 1010.7 - 0.0 - - - - - - -
28/01:00am 26.3 SE 13 16 1011.1 - 0.0 - - - - - - -
28/12:30am 26.2 ESE 12 16 1011.2 - 0.0 - - - - - - -
28/12:00am 26.3 ESE 12 15 1011.4 - 0.0 - - - - - - -
 
Date/Time
EST
Temp

°C
Wind Pressure Rain
since 9am
mm
Weather Cloud Vis
km
Sea
Height
m
Swell
Dir
 
Speed
knots
Gust
knots
hPa Trend Height
m
Period
s
Dir
27/11:30pm 26.4 SE 14 17 1011.8 - 0.0 - - - - - - -
27/11:00pm 26.5 SE 15 18 1011.9 - 0.0 - - - - - - -
27/10:30pm 26.6 SE 16 19 1011.9 - 0.0 - - - - - - -
27/10:00pm 26.5 ESE 16 18 1011.8 - 0.0 - - - - - - -
27/09:30pm 26.5 ESE 16 19 1011.6 - 0.0 - - - - - - -
27/09:00pm 26.5 ESE 15 19 1011.4 - 0.0 - - - - - - -
27/08:30pm 26.7 SE 15 18 1011.3 - 0.0 - - - - - - -
27/08:00pm 26.6 ESE 13 17 1011.3 - 0.0 - - - - - - -
27/07:30pm 26.7 ESE 14 17 1011.0 - 0.0 - - - - - - -
27/07:00pm 26.8 ESE 15 17 1010.8 - 0.0 - - - - - - -
27/06:30pm 27.1 ESE 13 16 1010.5 - 0.0 - - - - - - -
27/06:00pm 27.9 ESE 12 15 1010.3 - 0.0 - - - - - - -
27/05:30pm 28.3 ESE 13 16 1010.0 - 0.0 - - - - - - -
27/05:00pm 28.9 ESE 13 16 1009.9 - 0.0 - - - - - - -
27/04:30pm 29.2 SE 12 16 1009.7 - 0.0 - - - - - - -
27/04:00pm 29.9 ESE 12 15 1009.6 - 0.0 - - - - - - -
27/03:30pm 30.2 E 13 16 1009.5 - 0.0 - - - - - - -
27/03:00pm 30.3 ESE 10 13 1009.9 - 0.0 - - - - - - -
27/02:30pm 31.1 ESE 13 16 1010.2 - 0.0 - - - - - - -
27/02:00pm 30.4 ESE 13 16 1010.6 - 0.0 - - - - - - -
27/01:30pm 30.7 SE 12 14 1010.9 - 0.0 - - - - - - -
27/01:00pm 31.2 ESE 11 15 1011.1 - 0.0 - - - - - - -
27/12:30pm 31.4 ESE 11 14 1011.6 - 0.0 - - - - - - -
27/12:00pm 31.1 ESE 10 14 1011.6 - 0.0 - - - - - - -
27/11:30am 30.7 ESE 9 12 1012.2 - 0.0 - - - - - - -
27/11:00am 29.9 ESE 11 15 1012.5 - 0.0 - - - - - - -
27/10:30am 30.8 E 11 15 1012.6 - 0.0 - - - - - - -
27/10:00am 30.5 ESE 12 16 1012.7 - 0.0 - - - - - - -
27/09:30am 29.8 ESE 13 15 1012.9 - 0.0 - - - - - - -
27/09:00am 29.3 ESE 13 - 1012.7 - 12.0 Haze Mostly cloudy 12 - - - -
27/08:30am 29.3 ESE 13 17 1012.7 - 12.2 - - - - - - -
27/08:00am 29.0 ESE 11 14 1012.5 - 12.2 - - - - - - -
27/07:30am 28.2 E 10 12 1012.5 - 12.2 - - - - - - -
27/07:00am 27.3 E 11 14 1012.4 - 12.2 - - - - - - -
27/06:30am 26.2 E 10 13 1012.2 - 12.2 - - - - - - -
27/06:00am 26.0 ESE 11 14 1011.7 - 12.2 - - - - - - -
27/05:30am 25.5 S 11 14 1011.6 - 12.2 - - - - - - -
27/05:00am 25.5 SSE 10 11 1011.1 - 12.2 - - - - - - -
27/04:30am 25.2 SSE 13 17 1010.9 - 12.2 - - - - - - -
27/04:00am 25.5 SSE 16 18 1010.6 - 12.2 - - - - - - -
27/03:30am 25.2 SE 12 16 1010.5 - 12.2 - - - - - - -
27/03:00am 24.7 SE 15 19 1010.2 - 12.2 - - - - - - -
27/02:30am 24.3 SE 13 17 1010.8 - 12.2 - - - - - - -
27/02:10am 24.5 SSE 15 18 1011.0 - 12.0 - - - - - - -
27/02:00am 23.9 S 3 7 1011.0 - 12.0 - - - - - - -
27/01:30am 24.0 ENE 17 22 1011.0 - 5.8 - - - - - - -
27/01:24am 24.1 ENE 21 22 1010.9 - 4.2 - - - - - - -
27/01:12am 25.4 E 21 26 1010.8 - 0.2 - - - - - - -
27/01:00am 25.7 SE 18 23 1010.7 - 0.0 - - - - - - -
27/12:58am 25.7 SE 19 23 1010.8 - 0.0 - - - - - - -
27/12:30am 26.3 ESE 10 13 1011.0 - 0.0 - - - - - - -
27/12:00am 26.1 SE 12 14 1011.3 - 0.0 - - - - - - -
 
Date/Time
EST
Temp

°C
Wind Pressure Rain
since 9am
mm
Weather Cloud Vis
km
Sea
Height
m
Swell
Dir
 
Speed
knots
Gust
knots
hPa Trend Height
m
Period
s
Dir
26/11:30pm 26.9 ESE 10 13 1011.9 - 0.0 - - - - - - -
26/11:00pm 26.8 ESE 11 13 1011.8 - 0.0 - - - - - - -
26/10:30pm 26.8 ESE 11 14 1012.0 - 0.0 - - - - - - -
26/10:00pm 27.1 ESE 9 12 1012.0 - 0.0 - - - - - - -
26/09:30pm 27.1 SE 11 13 1011.9 - 0.0 - - - - - - -
26/09:00pm 27.1 ESE 11 14 1011.6 - 0.0 - - - - - - -
26/08:30pm 27.0 ESE 10 13 1011.5 - 0.0 - - - - - - -
26/08:00pm 27.0 SE 10 13 1011.3 - 0.0 - - - - - - -
26/07:30pm 27.0 SE 9 11 1011.0 - 0.0 - - - - - - -
26/07:00pm 27.1 ESE 9 11 1010.9 - 0.0 - - - - - - -
26/06:30pm 27.4 ESE 10 12 1010.7 - 0.0 - - - - - - -
26/06:00pm 28.2 ESE 9 12 1010.5 - 0.0 - - - - - - -
26/05:30pm 28.7 ESE 11 13 1010.5 - 0.0 - - - - - - -
26/05:00pm 29.4 SE 12 15 1010.4 - 0.0 - - - - - - -
26/04:30pm 30.0 ESE 12 15 1010.2 - 0.0 - - - - - - -
26/04:00pm 30.2 ESE 12 15 1010.0 - 0.0 - - - - - - -
26/03:30pm 30.7 ESE 12 14 1010.1 - 0.0 - - - - - - -
26/03:00pm 31.0 ESE 12 14 1010.0 - 0.0 Haze Partly cloudy 6 - - - -
26/02:30pm 31.7 ESE 12 15 1010.3 - 0.0 - - - - - - -
26/02:00pm 31.3 ESE 12 15 1010.5 - 0.0 - - - - - - -
26/01:30pm 31.4 E 13 16 1010.6 - 0.0 - - - - - - -
26/01:00pm 31.7 E 12 16 1010.9 - 0.0 - - - - - - -
26/12:30pm 31.8 E 13 17 1011.1 - 0.0 - - - - - - -
26/12:00pm 31.7 E 13 17 1011.1 - 0.0 - - - - - - -
26/11:30am 30.2 E 13 17 1011.3 - 0.0 - - - - - - -
26/11:00am 32.0 E 12 15 1011.6 - 0.0 - - - - - - -
26/10:30am 30.1 ESE 8 11 1011.9 - 0.0 - - - - - - -
26/10:00am 31.0 ESE 10 13 1011.8 - 0.0 - - - - - - -
26/09:30am 30.4 ESE 12 14 1011.8 - 0.0 - - - - - - -
26/09:00am 28.7 SE 12 14 1011.6 - 0.0 Distant precip. Mostly cloudy 8 - - - -
26/08:30am 28.8 ESE 12 16 1011.5 - 0.0 - - - - - - -
26/08:00am 28.1 SSE 6 10 1011.2 - 0.0 - - - - - - -
26/07:30am 27.1 SSE 9 11 1011.0 - 0.0 - - - - - - -
26/07:00am 27.2 SE 10 12 1010.6 - 0.0 - - - - - - -
26/06:30am 26.2 S 13 15 1010.2 - 0.0 - - - - - - -
26/06:00am 26.1 SSE 11 14 1009.9 - 0.0 - - - - - - -
26/05:30am 26.0 SSE 10 12 1009.8 - 0.0 - - - - - - -
26/05:00am 25.9 SE 11 14 1009.6 - 0.0 - - - - - - -
26/04:30am 26.0 SE 11 14 1009.4 - 0.0 - - - - - - -

Other Formats:

Comma delimited format used in spreadsheet applications
http://www.bom.gov.au/fwo/IDQ60701/IDQ60701.94285.axf

JavaScript Object Notation format (JSON) in row-major order
http://www.bom.gov.au/fwo/IDQ60701/IDQ60701.94285.json